Impacts TAF Board INFO
FOR SITUATIONAL AWARENESS. NOT TO BE USED FOR FLIGHT PLANNING PURPOSES.
IDs:

KPHL - Philadelphia Intl, PA, US

Issued at 0545 UTC 22 Feb 2018
Updated at 0854 UTC 22 Feb 2018
Potential Impact None Slight Moderate High
Time0754Z 22/09Z 22/10Z 22/11Z 22/12Z 22/13Z 22/14Z 22/15Z 22/16Z 22/17Z 22/18Z 22/19Z 22/20Z 22/21Z>>
Type OBS PRVL PRVL PRVL PRVL PRVL PRVL PRVL PRVL PRVL PRVL PRVL PRVL PRVL
VIS 10 >6 >6 >6 >6 >6 5 5 5 5 2 2 2 2
CIG 39 25 25 25 25 25 15 15 15 15 15 15 15 15
Cover OVC OVC OVC OVC OVC OVC OVC OVC OVC OVC OVC OVC OVC OVC
FltCat VFR MVFR MVFR MVFR MVFR MVFR MVFR MVFR MVFR MVFR IFR IFR IFR IFR
WX -- -- -- -- -- -- -RA -RA -RA -RA -RA BR -RA BR -RA BR -RA BR
WDir 10 20 20 20 20 20 40 40 40 40 40 40 40 40
WSpd 11 11 11 11 11 11 10 10 10 10 10 10 10 10
WGst -- -- -- -- -- -- -- -- -- -- -- -- -- --

Raw TAF
KPHL 220545Z 2206/2312 01011KT P6SM OVC035
  FM220800 02011KT P6SM OVC025
  FM221400 04010KT 5SM -RA OVC015
  FM221800 04010KT 2SM -RA BR OVC015
  FM222300 05009KT 1SM -RA BR OVC008
  FM230200 06008KT 3SM -DZ BR OVC010
  FM230600 06007KT 6SM BR OVC010


Raw METAR
KPHL 220754Z 01011KT 10SM BKN039 BKN070 OVC110 13/01 A3046 RMK AO2 SLP313 T01280006
KPHL 220654Z 02012KT 10SM BKN038 BKN050 OVC070 13/03 A3045 RMK AO2 SLP310 T01330033
KPHL 220554Z 36012KT 10SM BKN037 BKN070 OVC110 14/08 A3043 RMK AO2 SLP303 60001 T01390078 10222 20139 51024

METAR Board
Radar Display
Forecast Discussion

FOR SITUATIONAL AWARENESS. NOT TO BE USED FOR FLIGHT PLANNING PURPOSES.